sensor_id;sensor_type;location;lat;lon;timestamp;pressure;altitude;pressure_sealevel;temperature;humidity
22181;BME280;11256;50.830;12.834;2023-07-13T00:00:42;97372.81;;;25.31;39.15
22181;BME280;11256;50.830;12.834;2023-07-13T00:05:43;97377.03;;;25.18;39.60
22181;BME280;11256;50.830;12.834;2023-07-13T00:10:43;97370.63;;;25.10;40.01
22181;BME280;11256;50.830;12.834;2023-07-13T00:15:45;97382.38;;;24.97;40.03
22181;BME280;11256;50.830;12.834;2023-07-13T00:20:46;97378.41;;;24.98;40.35
22181;BME280;11256;50.830;12.834;2023-07-13T00:25:47;97368.44;;;24.90;40.10
22181;BME280;11256;50.830;12.834;2023-07-13T00:30:47;97395.00;;;24.91;40.52
22181;BME280;11256;50.830;12.834;2023-07-13T00:35:47;97392.88;;;24.77;40.36
22181;BME280;11256;50.830;12.834;2023-07-13T00:40:48;97388.22;;;24.55;40.80
22181;BME280;11256;50.830;12.834;2023-07-13T00:50:52;97378.63;;;24.46;41.11
22181;BME280;11256;50.830;12.834;2023-07-13T00:55:55;97369.84;;;24.44;41.54
22181;BME280;11256;50.830;12.834;2023-07-13T01:00:56;97355.53;;;24.35;41.70
22181;BME280;11256;50.830;12.834;2023-07-13T01:05:56;97350.31;;;24.30;41.60
22181;BME280;11256;50.830;12.834;2023-07-13T01:10:57;97358.19;;;24.28;42.02
22181;BME280;11256;50.830;12.834;2023-07-13T01:16:02;97351.38;;;24.22;41.76
22181;BME280;11256;50.830;12.834;2023-07-13T01:21:04;97359.28;;;24.20;42.06
22181;BME280;11256;50.830;12.834;2023-07-13T01:26:05;97370.84;;;24.29;42.33
22181;BME280;11256;50.830;12.834;2023-07-13T01:31:06;97371.94;;;24.21;42.42
22181;BME280;11256;50.830;12.834;2023-07-13T01:36:07;97364.63;;;24.06;42.63
22181;BME280;11256;50.830;12.834;2023-07-13T01:41:08;97359.44;;;24.04;42.82
22181;BME280;11256;50.830;12.834;2023-07-13T01:46:08;97366.09;;;23.96;42.80
22181;BME280;11256;50.830;12.834;2023-07-13T01:51:09;97363.78;;;24.02;43.09
22181;BME280;11256;50.830;12.834;2023-07-13T01:56:09;97377.97;;;23.97;43.13
22181;BME280;11256;50.830;12.834;2023-07-13T02:01:09;97382.28;;;23.94;43.27
22181;BME280;11256;50.830;12.834;2023-07-13T02:06:10;97376.53;;;23.84;43.36
22181;BME280;11256;50.830;12.834;2023-07-13T02:11:10;97378.00;;;23.74;43.58
22181;BME280;11256;50.830;12.834;2023-07-13T02:16:10;97371.31;;;23.79;43.55
22181;BME280;11256;50.830;12.834;2023-07-13T02:21:11;97369.09;;;23.62;43.54
22181;BME280;11256;50.830;12.834;2023-07-13T02:26:11;97372.50;;;23.52;43.54
22181;BME280;11256;50.830;12.834;2023-07-13T02:31:14;97365.16;;;23.37;43.92
22181;BME280;11256;50.830;12.834;2023-07-13T02:36:15;97371.00;;;23.32;44.03
22181;BME280;11256;50.830;12.834;2023-07-13T02:41:18;97380.03;;;23.29;44.23
22181;BME280;11256;50.830;12.834;2023-07-13T02:46:19;97384.66;;;23.21;44.26
22181;BME280;11256;50.830;12.834;2023-07-13T02:51:19;97399.56;;;23.17;44.35
22181;BME280;11256;50.830;12.834;2023-07-13T02:56:25;97379.94;;;23.03;44.47
22181;BME280;11256;50.830;12.834;2023-07-13T03:01:25;97396.84;;;22.98;44.67
22181;BME280;11256;50.830;12.834;2023-07-13T03:06:26;97400.34;;;22.95;44.96
22181;BME280;11256;50.830;12.834;2023-07-13T03:11:29;97411.53;;;23.02;44.90
22181;BME280;11256;50.830;12.834;2023-07-13T03:16:39;97407.59;;;23.03;45.01
22181;BME280;11256;50.830;12.834;2023-07-13T03:21:39;97416.41;;;23.08;45.38
22181;BME280;11256;50.830;12.834;2023-07-13T03:26:40;97417.63;;;23.11;45.00
22181;BME280;11256;50.830;12.834;2023-07-13T03:31:40;97411.72;;;22.90;45.42
22181;BME280;11256;50.830;12.834;2023-07-13T03:36:41;97410.66;;;22.75;45.43
22181;BME280;11256;50.830;12.834;2023-07-13T03:41:44;97400.19;;;22.65;45.51
22181;BME280;11256;50.830;12.834;2023-07-13T03:46:46;97424.53;;;22.60;45.74
22181;BME280;11256;50.830;12.834;2023-07-13T03:51:48;97422.16;;;22.58;45.85
22181;BME280;11256;50.830;12.834;2023-07-13T03:56:48;97427.50;;;22.51;45.54
22181;BME280;11256;50.830;12.834;2023-07-13T04:01:50;97435.72;;;22.48;46.03
22181;BME280;11256;50.830;12.834;2023-07-13T04:06:50;97434.03;;;22.43;46.14
22181;BME280;11256;50.830;12.834;2023-07-13T04:11:53;97436.72;;;22.40;46.34
22181;BME280;11256;50.830;12.834;2023-07-13T04:16:53;97432.66;;;22.34;46.49
22181;BME280;11256;50.830;12.834;2023-07-13T04:21:54;97429.91;;;22.34;46.27
22181;BME280;11256;50.830;12.834;2023-07-13T04:26:55;97433.38;;;22.31;46.79
22181;BME280;11256;50.830;12.834;2023-07-13T04:31:59;97425.44;;;22.29;46.60
22181;BME280;11256;50.830;12.834;2023-07-13T04:36:59;97419.06;;;22.25;46.53
22181;BME280;11256;50.830;12.834;2023-07-13T04:42:00;97433.22;;;22.24;46.96
22181;BME280;11256;50.830;12.834;2023-07-13T04:47:00;97440.97;;;22.18;47.27
22181;BME280;11256;50.830;12.834;2023-07-13T04:52:00;97450.97;;;22.23;47.28
22181;BME280;11256;50.830;12.834;2023-07-13T04:57:01;97451.81;;;22.27;47.51
22181;BME280;11256;50.830;12.834;2023-07-13T05:02:01;97463.41;;;22.32;47.46
22181;BME280;11256;50.830;12.834;2023-07-13T05:07:01;97462.66;;;22.35;47.32
22181;BME280;11256;50.830;12.834;2023-07-13T05:12:02;97460.16;;;22.46;47.63
22181;BME280;11256;50.830;12.834;2023-07-13T05:17:02;97464.94;;;22.49;46.98
22181;BME280;11256;50.830;12.834;2023-07-13T05:22:03;97475.50;;;22.62;47.63
22181;BME280;11256;50.830;12.834;2023-07-13T05:27:04;97456.38;;;22.54;47.40
22181;BME280;11256;50.830;12.834;2023-07-13T05:32:05;97474.44;;;22.67;47.44
22181;BME280;11256;50.830;12.834;2023-07-13T05:37:05;97471.38;;;22.72;47.46
22181;BME280;11256;50.830;12.834;2023-07-13T05:42:06;97473.03;;;22.76;47.41
22181;BME280;11256;50.830;12.834;2023-07-13T05:47:06;97486.00;;;22.91;47.52
22181;BME280;11256;50.830;12.834;2023-07-13T05:52:07;97490.78;;;22.94;47.40
22181;BME280;11256;50.830;12.834;2023-07-13T05:57:07;97492.94;;;23.04;47.45
22181;BME280;11256;50.830;12.834;2023-07-13T06:02:09;97491.13;;;23.12;47.10
22181;BME280;11256;50.830;12.834;2023-07-13T06:07:10;97493.69;;;23.20;47.02
22181;BME280;11256;50.830;12.834;2023-07-13T06:12:11;97507.28;;;23.29;46.97
22181;BME280;11256;50.830;12.834;2023-07-13T06:17:11;97504.16;;;23.30;46.90
22181;BME280;11256;50.830;12.834;2023-07-13T06:22:11;97517.31;;;23.37;46.71
22181;BME280;11256;50.830;12.834;2023-07-13T06:27:12;97510.00;;;23.48;46.87
22181;BME280;11256;50.830;12.834;2023-07-13T06:32:12;97508.09;;;23.52;47.05
22181;BME280;11256;50.830;12.834;2023-07-13T06:37:12;97519.06;;;23.67;47.05
22181;BME280;11256;50.830;12.834;2023-07-13T06:42:13;97526.25;;;23.72;46.85
22181;BME280;11256;50.830;12.834;2023-07-13T06:47:13;97523.16;;;23.77;46.59
22181;BME280;11256;50.830;12.834;2023-07-13T06:52:13;97533.63;;;23.87;46.66
22181;BME280;11256;50.830;12.834;2023-07-13T06:57:14;97526.00;;;24.03;46.85
22181;BME280;11256;50.830;12.834;2023-07-13T07:02:14;97521.91;;;24.19;47.33
22181;BME280;11256;50.830;12.834;2023-07-13T07:07:14;97532.09;;;24.38;48.23
22181;BME280;11256;50.830;12.834;2023-07-13T07:12:15;97517.59;;;24.74;48.46
22181;BME280;11256;50.830;12.834;2023-07-13T07:17:15;97531.88;;;25.38;47.40
22181;BME280;11256;50.830;12.834;2023-07-13T07:22:15;97529.28;;;25.96;45.41
22181;BME280;11256;50.830;12.834;2023-07-13T07:27:16;97518.81;;;26.26;45.28
22181;BME280;11256;50.830;12.834;2023-07-13T07:32:16;97536.94;;;26.56;44.24
22181;BME280;11256;50.830;12.834;2023-07-13T07:37:16;97537.00;;;26.74;42.96
22181;BME280;11256;50.830;12.834;2023-07-13T07:42:17;97526.88;;;27.13;42.50
22181;BME280;11256;50.830;12.834;2023-07-13T07:47:17;97525.50;;;27.82;42.38
22181;BME280;11256;50.830;12.834;2023-07-13T07:52:18;97533.88;;;28.24;40.49
22181;BME280;11256;50.830;12.834;2023-07-13T07:57:18;97543.81;;;28.56;40.93
22181;BME280;11256;50.830;12.834;2023-07-13T08:02:18;97538.56;;;28.97;39.51
22181;BME280;11256;50.830;12.834;2023-07-13T08:07:19;97537.88;;;29.65;39.45
22181;BME280;11256;50.830;12.834;2023-07-13T08:12:19;97544.63;;;30.25;38.37
22181;BME280;11256;50.830;12.834;2023-07-13T08:17:20;97548.13;;;30.84;38.24
22181;BME280;11256;50.830;12.834;2023-07-13T08:22:20;97563.03;;;31.11;36.90
22181;BME280;11256;50.830;12.834;2023-07-13T08:27:25;97561.19;;;30.97;36.27
22181;BME280;11256;50.830;12.834;2023-07-13T08:32:26;97556.13;;;30.82;35.33
22181;BME280;11256;50.830;12.834;2023-07-13T08:37:26;97553.91;;;31.37;36.97
22181;BME280;11256;50.830;12.834;2023-07-13T08:42:37;97550.56;;;32.05;36.24
22181;BME280;11256;50.830;12.834;2023-07-13T08:47:47;97568.81;;;32.66;34.98
22181;BME280;11256;50.830;12.834;2023-07-13T08:52:48;97564.97;;;32.34;32.63
22181;BME280;11256;50.830;12.834;2023-07-13T08:57:54;97563.94;;;33.13;32.14
22181;BME280;11256;50.830;12.834;2023-07-13T09:02:58;97561.28;;;33.25;32.51
22181;BME280;11256;50.830;12.834;2023-07-13T09:13:25;97573.53;;;33.15;31.88
22181;BME280;11256;50.830;12.834;2023-07-13T09:18:32;97569.38;;;33.43;32.78
22181;BME280;11256;50.830;12.834;2023-07-13T09:23:35;97574.81;;;33.34;31.66
22181;BME280;11256;50.830;12.834;2023-07-13T09:28:40;97576.13;;;33.06;31.32
22181;BME280;11256;50.830;12.834;2023-07-13T09:33:42;97573.34;;;32.60;31.68
22181;BME280;11256;50.830;12.834;2023-07-13T09:38:42;97590.50;;;32.13;31.50
22181;BME280;11256;50.830;12.834;2023-07-13T09:44:08;97584.56;;;31.51;31.89
22181;BME280;11256;50.830;12.834;2023-07-13T09:49:12;97592.75;;;30.98;32.94
22181;BME280;11256;50.830;12.834;2023-07-13T09:54:24;97593.53;;;30.58;33.48
22181;BME280;11256;50.830;12.834;2023-07-13T09:59:34;97583.03;;;30.25;34.12
22181;BME280;11256;50.830;12.834;2023-07-13T10:04:34;97591.84;;;30.20;34.62
22181;BME280;11256;50.830;12.834;2023-07-13T10:09:35;97587.91;;;30.14;34.76
22181;BME280;11256;50.830;12.834;2023-07-13T10:14:35;97593.94;;;30.05;34.55
22181;BME280;11256;50.830;12.834;2023-07-13T10:19:36;97594.34;;;30.04;34.85
22181;BME280;11256;50.830;12.834;2023-07-13T10:24:38;97591.09;;;30.09;35.02
22181;BME280;11256;50.830;12.834;2023-07-13T10:29:46;97587.84;;;30.21;34.52
22181;BME280;11256;50.830;12.834;2023-07-13T10:34:48;97579.03;;;30.26;33.97
22181;BME280;11256;50.830;12.834;2023-07-13T10:39:52;97581.38;;;30.31;34.34
22181;BME280;11256;50.830;12.834;2023-07-13T10:44:54;97590.88;;;30.40;34.20
22181;BME280;11256;50.830;12.834;2023-07-13T10:49:57;97580.84;;;30.46;34.47
22181;BME280;11256;50.830;12.834;2023-07-13T10:55:02;97573.19;;;30.54;33.88
22181;BME280;11256;50.830;12.834;2023-07-13T11:05:28;97572.19;;;30.74;32.32
22181;BME280;11256;50.830;12.834;2023-07-13T11:10:55;97587.38;;;30.77;32.25
22181;BME280;11256;50.830;12.834;2023-07-13T11:15:55;97573.09;;;30.64;33.46
22181;BME280;11256;50.830;12.834;2023-07-13T11:21:19;97567.13;;;30.59;33.21
22181;BME280;11256;50.830;12.834;2023-07-13T11:26:40;97571.50;;;30.60;33.37
22181;BME280;11256;50.830;12.834;2023-07-13T11:31:42;97572.84;;;30.48;33.34
22181;BME280;11256;50.830;12.834;2023-07-13T11:36:45;97579.19;;;30.56;33.45
22181;BME280;11256;50.830;12.834;2023-07-13T11:41:50;97569.88;;;30.66;33.70
22181;BME280;11256;50.830;12.834;2023-07-13T11:47:00;97578.56;;;30.78;32.98
22181;BME280;11256;50.830;12.834;2023-07-13T11:52:11;97572.63;;;30.73;33.05
22181;BME280;11256;50.830;12.834;2023-07-13T11:57:45;97565.59;;;30.95;33.35
22181;BME280;11256;50.830;12.834;2023-07-13T12:02:50;97567.88;;;31.07;32.97
22181;BME280;11256;50.830;12.834;2023-07-13T12:07:51;97559.69;;;31.23;33.35
22181;BME280;11256;50.830;12.834;2023-07-13T12:12:55;97559.72;;;31.83;32.86
22181;BME280;11256;50.830;12.834;2023-07-13T12:17:56;97546.81;;;31.89;33.03
22181;BME280;11256;50.830;12.834;2023-07-13T12:22:56;97551.59;;;32.64;31.48
22181;BME280;11256;50.830;12.834;2023-07-13T12:27:57;97549.25;;;32.59;31.77
22181;BME280;11256;50.830;12.834;2023-07-13T12:33:11;97559.78;;;32.55;32.26
22181;BME280;11256;50.830;12.834;2023-07-13T12:38:12;97556.78;;;32.66;31.64
22181;BME280;11256;50.830;12.834;2023-07-13T12:43:14;97557.75;;;32.56;31.33
22181;BME280;11256;50.830;12.834;2023-07-13T12:48:16;97557.22;;;32.41;31.51
22181;BME280;11256;50.830;12.834;2023-07-13T12:53:21;97566.66;;;32.51;31.28
22181;BME280;11256;50.830;12.834;2023-07-13T13:03:37;97568.94;;;32.10;30.61
22181;BME280;11256;50.830;12.834;2023-07-13T13:08:38;97561.81;;;32.05;30.91
22181;BME280;11256;50.830;12.834;2023-07-13T13:13:41;97559.28;;;32.11;30.78
22181;BME280;11256;50.830;12.834;2023-07-13T13:18:41;97558.69;;;32.23;31.11
22181;BME280;11256;50.830;12.834;2023-07-13T13:23:42;97544.47;;;32.37;31.17
22181;BME280;11256;50.830;12.834;2023-07-13T13:28:45;97563.31;;;32.59;31.22
22181;BME280;11256;50.830;12.834;2023-07-13T13:33:45;97570.09;;;32.62;30.60
22181;BME280;11256;50.830;12.834;2023-07-13T13:38:47;97579.38;;;32.59;29.43
22181;BME280;11256;50.830;12.834;2023-07-13T13:43:48;97574.38;;;32.47;29.89
22181;BME280;11256;50.830;12.834;2023-07-13T13:48:48;97574.25;;;32.54;29.93
22181;BME280;11256;50.830;12.834;2023-07-13T13:53:49;97565.81;;;32.54;29.42
22181;BME280;11256;50.830;12.834;2023-07-13T13:58:49;97557.81;;;32.52;29.56
22181;BME280;11256;50.830;12.834;2023-07-13T14:03:50;97569.84;;;32.53;29.67
22181;BME280;11256;50.830;12.834;2023-07-13T14:08:54;97579.78;;;32.57;28.97
22181;BME280;11256;50.830;12.834;2023-07-13T14:13:58;97569.84;;;32.53;28.61
22181;BME280;11256;50.830;12.834;2023-07-13T14:18:59;97565.81;;;32.54;28.68
22181;BME280;11256;50.830;12.834;2023-07-13T14:24:00;97564.41;;;32.42;28.09
22181;BME280;11256;50.830;12.834;2023-07-13T14:29:01;97557.59;;;32.17;28.70
22181;BME280;11256;50.830;12.834;2023-07-13T14:34:01;97551.66;;;32.38;29.08
22181;BME280;11256;50.830;12.834;2023-07-13T14:39:14;97559.47;;;32.50;28.66
22181;BME280;11256;50.830;12.834;2023-07-13T14:44:16;97570.34;;;32.71;28.72
22181;BME280;11256;50.830;12.834;2023-07-13T14:49:29;97571.06;;;32.75;27.79
22181;BME280;11256;50.830;12.834;2023-07-13T14:54:30;97564.78;;;32.67;27.48
22181;BME280;11256;50.830;12.834;2023-07-13T14:59:31;97575.28;;;32.63;27.16
22181;BME280;11256;50.830;12.834;2023-07-13T15:04:31;97567.59;;;32.67;27.42
22181;BME280;11256;50.830;12.834;2023-07-13T15:09:31;97571.56;;;32.70;27.67
22181;BME280;11256;50.830;12.834;2023-07-13T15:14:32;97562.53;;;32.82;27.56
22181;BME280;11256;50.830;12.834;2023-07-13T15:19:32;97553.97;;;32.89;27.97
22181;BME280;11256;50.830;12.834;2023-07-13T15:24:32;97563.53;;;33.14;27.75
22181;BME280;11256;50.830;12.834;2023-07-13T15:29:33;97566.41;;;33.30;27.17
22181;BME280;11256;50.830;12.834;2023-07-13T15:34:33;97554.44;;;33.26;27.62
22181;BME280;11256;50.830;12.834;2023-07-13T15:39:34;97552.81;;;33.29;27.05
22181;BME280;11256;50.830;12.834;2023-07-13T15:44:35;97560.38;;;33.32;26.42
22181;BME280;11256;50.830;12.834;2023-07-13T15:49:36;97555.66;;;33.25;26.71
22181;BME280;11256;50.830;12.834;2023-07-13T15:54:38;97573.31;;;33.26;26.01
22181;BME280;11256;50.830;12.834;2023-07-13T15:59:39;97568.13;;;33.24;25.68
22181;BME280;11256;50.830;12.834;2023-07-13T16:04:41;97575.69;;;33.08;26.10
22181;BME280;11256;50.830;12.834;2023-07-13T16:09:41;97568.09;;;33.05;25.90
22181;BME280;11256;50.830;12.834;2023-07-13T16:14:42;97573.69;;;32.85;26.27
22181;BME280;11256;50.830;12.834;2023-07-13T16:19:42;97572.78;;;32.69;26.46
22181;BME280;11256;50.830;12.834;2023-07-13T16:24:43;97574.84;;;32.65;26.63
22181;BME280;11256;50.830;12.834;2023-07-13T16:29:45;97575.41;;;32.56;26.58
22181;BME280;11256;50.830;12.834;2023-07-13T16:34:45;97586.09;;;32.42;26.17
22181;BME280;11256;50.830;12.834;2023-07-13T16:39:48;97576.66;;;32.29;26.13
22181;BME280;11256;50.830;12.834;2023-07-13T16:44:49;97581.25;;;32.16;26.37
22181;BME280;11256;50.830;12.834;2023-07-13T16:49:51;97584.66;;;32.04;27.08
22181;BME280;11256;50.830;12.834;2023-07-13T16:54:53;97586.06;;;31.89;26.85
22181;BME280;11256;50.830;12.834;2023-07-13T16:59:53;97603.78;;;31.52;26.88
22181;BME280;11256;50.830;12.834;2023-07-13T17:04:55;97600.31;;;31.41;26.67
22181;BME280;11256;50.830;12.834;2023-07-13T17:09:55;97600.41;;;31.31;26.95
22181;BME280;11256;50.830;12.834;2023-07-13T17:14:56;97606.94;;;31.21;27.21
22181;BME280;11256;50.830;12.834;2023-07-13T17:19:57;97609.06;;;31.06;27.05
22181;BME280;11256;50.830;12.834;2023-07-13T17:24:59;97614.47;;;30.87;27.57
22181;BME280;11256;50.830;12.834;2023-07-13T17:29:59;97610.59;;;30.77;27.42
22181;BME280;11256;50.830;12.834;2023-07-13T17:35:00;97614.69;;;30.66;27.87
22181;BME280;11256;50.830;12.834;2023-07-13T17:40:01;97621.53;;;30.58;28.13
22181;BME280;11256;50.830;12.834;2023-07-13T17:45:06;97627.22;;;30.44;28.23
22181;BME280;11256;50.830;12.834;2023-07-13T17:50:13;97622.94;;;30.32;28.70
22181;BME280;11256;50.830;12.834;2023-07-13T17:55:15;97621.41;;;30.21;28.41
22181;BME280;11256;50.830;12.834;2023-07-13T18:00:19;97619.88;;;30.06;28.41
22181;BME280;11256;50.830;12.834;2023-07-13T18:05:29;97630.00;;;29.86;28.86
22181;BME280;11256;50.830;12.834;2023-07-13T18:10:29;97631.22;;;29.78;28.82
22181;BME280;11256;50.830;12.834;2023-07-13T18:15:31;97632.91;;;29.65;29.37
22181;BME280;11256;50.830;12.834;2023-07-13T18:20:32;97637.72;;;29.50;29.60
22181;BME280;11256;50.830;12.834;2023-07-13T18:25:33;97647.34;;;29.39;29.83
22181;BME280;11256;50.830;12.834;2023-07-13T18:30:33;97650.16;;;29.32;30.04
22181;BME280;11256;50.830;12.834;2023-07-13T18:35:33;97652.19;;;29.14;30.17
22181;BME280;11256;50.830;12.834;2023-07-13T18:40:34;97655.03;;;29.03;30.41
22181;BME280;11256;50.830;12.834;2023-07-13T18:45:35;97650.63;;;28.85;30.82
22181;BME280;11256;50.830;12.834;2023-07-13T18:50:36;97651.44;;;28.82;30.60
22181;BME280;11256;50.830;12.834;2023-07-13T18:55:40;97666.59;;;28.67;30.84
22181;BME280;11256;50.830;12.834;2023-07-13T19:00:42;97674.94;;;28.56;30.96
22181;BME280;11256;50.830;12.834;2023-07-13T19:05:43;97667.38;;;28.43;31.12
22181;BME280;11256;50.830;12.834;2023-07-13T19:10:44;97674.09;;;28.28;31.34
22181;BME280;11256;50.830;12.834;2023-07-13T19:15:45;97696.00;;;28.19;31.38
22181;BME280;11256;50.830;12.834;2023-07-13T19:20:50;97697.56;;;28.06;31.95
22181;BME280;11256;50.830;12.834;2023-07-13T19:25:52;97715.03;;;27.96;31.87
22181;BME280;11256;50.830;12.834;2023-07-13T19:30:53;97712.63;;;27.84;32.19
22181;BME280;11256;50.830;12.834;2023-07-13T19:35:53;97719.69;;;27.74;32.56
22181;BME280;11256;50.830;12.834;2023-07-13T19:40:54;97718.84;;;27.63;32.44
22181;BME280;11256;50.830;12.834;2023-07-13T19:45:56;97743.50;;;27.54;32.51
22181;BME280;11256;50.830;12.834;2023-07-13T19:50:56;97730.66;;;27.39;32.82
22181;BME280;11256;50.830;12.834;2023-07-13T19:55:56;97738.56;;;27.34;32.82
22181;BME280;11256;50.830;12.834;2023-07-13T20:00:57;97743.28;;;27.23;33.20
22181;BME280;11256;50.830;12.834;2023-07-13T20:05:57;97742.38;;;27.12;33.24
22181;BME280;11256;50.830;12.834;2023-07-13T20:10:58;97754.28;;;27.09;33.19
22181;BME280;11256;50.830;12.834;2023-07-13T20:15:58;97765.31;;;26.98;33.46
22181;BME280;11256;50.830;12.834;2023-07-13T20:20:59;97762.47;;;26.88;33.32
22181;BME280;11256;50.830;12.834;2023-07-13T20:26:00;97763.63;;;26.83;33.29
22181;BME280;11256;50.830;12.834;2023-07-13T20:31:01;97777.50;;;26.80;33.65
22181;BME280;11256;50.830;12.834;2023-07-13T20:36:05;97773.06;;;26.72;33.70
22181;BME280;11256;50.830;12.834;2023-07-13T20:41:10;97788.09;;;26.64;33.74
22181;BME280;11256;50.830;12.834;2023-07-13T20:46:14;97786.47;;;26.63;33.51
22181;BME280;11256;50.830;12.834;2023-07-13T20:51:17;97793.56;;;26.57;33.68
22181;BME280;11256;50.830;12.834;2023-07-13T20:56:19;97789.09;;;26.49;33.98
22181;BME280;11256;50.830;12.834;2023-07-13T21:01:25;97803.69;;;26.42;34.26
22181;BME280;11256;50.830;12.834;2023-07-13T21:06:28;97806.78;;;26.34;34.51
22181;BME280;11256;50.830;12.834;2023-07-13T21:11:32;97807.94;;;26.29;34.62
22181;BME280;11256;50.830;12.834;2023-07-13T21:16:33;97821.72;;;26.22;34.51
22181;BME280;11256;50.830;12.834;2023-07-13T21:21:33;97825.56;;;26.11;35.15
22181;BME280;11256;50.830;12.834;2023-07-13T21:26:34;97846.22;;;26.10;35.25
22181;BME280;11256;50.830;12.834;2023-07-13T21:31:35;97845.25;;;25.99;35.30
22181;BME280;11256;50.830;12.834;2023-07-13T21:36:36;97857.00;;;25.89;35.70
22181;BME280;11256;50.830;12.834;2023-07-13T21:41:37;97861.16;;;25.76;36.10
22181;BME280;11256;50.830;12.834;2023-07-13T21:46:38;97874.94;;;25.69;36.45
22181;BME280;11256;50.830;12.834;2023-07-13T21:51:38;97861.28;;;25.57;36.57
22181;BME280;11256;50.830;12.834;2023-07-13T21:56:39;97871.41;;;25.46;36.82
22181;BME280;11256;50.830;12.834;2023-07-13T22:01:39;97880.88;;;25.41;36.75
22181;BME280;11256;50.830;12.834;2023-07-13T22:06:39;97882.22;;;25.28;36.81
22181;BME280;11256;50.830;12.834;2023-07-13T22:11:40;97876.53;;;25.21;37.20
22181;BME280;11256;50.830;12.834;2023-07-13T22:16:40;97888.31;;;25.15;37.15
22181;BME280;11256;50.830;12.834;2023-07-13T22:21:40;97880.91;;;25.00;37.34
22181;BME280;11256;50.830;12.834;2023-07-13T22:26:41;97882.06;;;24.99;37.80
22181;BME280;11256;50.830;12.834;2023-07-13T22:31:42;97885.03;;;24.87;38.14
22181;BME280;11256;50.830;12.834;2023-07-13T22:36:45;97894.00;;;24.80;37.85
22181;BME280;11256;50.830;12.834;2023-07-13T22:41:46;97887.47;;;24.69;38.44
22181;BME280;11256;50.830;12.834;2023-07-13T22:46:47;97894.94;;;24.65;38.12
22181;BME280;11256;50.830;12.834;2023-07-13T22:51:48;97883.59;;;24.55;38.40
22181;BME280;11256;50.830;12.834;2023-07-13T22:56:49;97890.09;;;24.43;38.61
22181;BME280;11256;50.830;12.834;2023-07-13T23:01:49;97903.00;;;24.36;38.93
22181;BME280;11256;50.830;12.834;2023-07-13T23:06:50;97904.69;;;24.21;38.99
22181;BME280;11256;50.830;12.834;2023-07-13T23:11:53;97912.47;;;24.16;38.86
22181;BME280;11256;50.830;12.834;2023-07-13T23:16:57;97898.81;;;24.07;39.32
22181;BME280;11256;50.830;12.834;2023-07-13T23:21:58;97912.44;;;23.97;39.55
22181;BME280;11256;50.830;12.834;2023-07-13T23:26:59;97922.88;;;23.88;39.72
22181;BME280;11256;50.830;12.834;2023-07-13T23:32:00;97920.38;;;23.83;40.07
22181;BME280;11256;50.830;12.834;2023-07-13T23:37:00;97921.47;;;23.78;40.09
22181;BME280;11256;50.830;12.834;2023-07-13T23:42:00;97926.94;;;23.75;40.36
22181;BME280;11256;50.830;12.834;2023-07-13T23:47:01;97917.66;;;23.67;40.45
22181;BME280;11256;50.830;12.834;2023-07-13T23:52:05;97903.03;;;23.51;40.43
22181;BME280;11256;50.830;12.834;2023-07-13T23:57:09;97906.00;;;23.43;40.32
